Time;durP1;ratioP1;P1;durP2;ratioP2;P2;SDS_P1;SDS_P2;PMS_P1;PMS_P2;Temp;Humidity;BMP_temperature;BMP_pressure;BME280_temperature;BME280_humidity;BME280_pressure;Samples;Min_cycle;Max_cycle;Signal;HPM_P1;HPM_P2
2022/04/13 00:00:04;;;;;;;4.78;2.60;;;13.90;94.90;;;;;;5048115;28;20443;-84
2022/04/13 00:02:30;;;;;;;6.28;2.40;;;13.90;94.60;;;;;;5048062;28;20055;-85
2022/04/13 00:04:56;;;;;;;9.18;2.90;;;13.90;94.60;;;;;;5063565;28;20029;-84
2022/04/13 00:07:23;;;;;;;6.07;2.13;;;;;;;;;;5057717;28;20064;-84
2022/04/13 00:09:49;;;;;;;9.32;2.80;;;;;;;;;;5047827;28;20034;-87
2022/04/13 00:12:15;;;;;;;7.95;2.53;;;13.80;96.30;;;;;;5031808;28;20071;-87
2022/04/13 00:14:41;;;;;;;7.95;2.35;;;13.80;96.30;;;;;;5048668;28;20029;-85
2022/04/13 00:17:07;;;;;;;8.20;2.90;;;13.80;96.80;;;;;;5034296;28;20021;-88
2022/04/13 00:19:34;;;;;;;12.30;3.25;;;;;;;;;;5051489;28;20029;-88
2022/04/13 00:21:59;;;;;;;5.13;2.35;;;13.70;97.40;;;;;;5031329;28;20079;-88
2022/04/13 00:24:25;;;;;;;6.95;2.70;;;;;;;;;;5049524;28;20029;-84
2022/04/13 00:26:51;;;;;;;8.13;2.97;;;;;;;;;;5032029;28;20047;-87
2022/04/13 00:29:18;;;;;;;6.15;2.28;;;;;;;;;;5051707;28;20032;-85
2022/04/13 00:31:44;;;;;;;7.00;2.42;;;;;;;;;;5049342;28;20021;-84
2022/04/13 00:34:10;;;;;;;5.57;2.08;;;;;;;;;;5027134;28;20028;-83
2022/04/13 00:36:36;;;;;;;4.63;2.05;;;13.60;98.70;;;;;;5029060;28;20501;-84
2022/04/13 00:39:02;;;;;;;6.40;1.90;;;;;;;;;;5031904;28;20055;-87
2022/04/13 00:41:28;;;;;;;8.73;5.80;;;;;;;;;;5046086;28;20090;-86
2022/04/13 00:44:08;;;;;;;8.10;3.30;;;13.50;98.80;;;;;;5051094;28;20029;-85
2022/04/13 00:46:34;;;;;;;7.13;2.70;;;13.50;99.00;;;;;;5028001;28;20082;-86
2022/04/13 00:49:02;;;;;;;10.90;3.70;;;13.50;99.60;;;;;;5051678;28;20283;-87
2022/04/13 00:51:28;;;;;;;12.48;3.75;;;;;;;;;;5036628;28;20029;-86
2022/04/13 00:53:57;;;;;;;8.27;3.90;;;13.30;99.90;;;;;;5033430;28;20033;-84
2022/04/13 00:56:25;;;;;;;12.32;3.50;;;13.30;99.90;;;;;;5049332;28;20025;-86
2022/04/13 00:58:53;;;;;;;9.13;3.25;;;13.30;99.90;;;;;;5048842;28;20049;-84
2022/04/13 01:01:19;;;;;;;6.57;2.95;;;;;;;;;;5035633;28;20035;-86
2022/04/13 01:03:47;;;;;;;9.80;3.35;;;13.20;99.90;;;;;;5051110;28;20041;-86
2022/04/13 01:06:15;;;;;;;8.30;3.25;;;;;;;;;;5032232;28;20037;-86
2022/04/13 01:08:41;;;;;;;6.95;2.97;;;;;;;;;;5053460;28;20033;-85
2022/04/13 01:11:07;;;;;;;7.95;2.63;;;13.10;99.90;;;;;;5065739;28;20528;-81
2022/04/13 01:13:33;;;;;;;4.70;2.50;;;;;;;;;;5067785;28;20044;-83
2022/04/13 01:15:59;;;;;;;15.95;3.13;;;;;;;;;;5064008;28;20034;-86
2022/04/13 01:18:24;;;;;;;5.82;2.67;;;13.10;99.90;;;;;;5055829;28;20070;-86
2022/04/13 01:20:54;;;;;;;6.60;2.65;;;;;;;;;;5056665;28;20025;-86
2022/04/13 01:23:21;;;;;;;6.45;2.58;;;13.00;99.90;;;;;;5053187;28;20028;-84
2022/04/13 01:25:48;;;;;;;8.82;2.50;;;13.00;99.90;;;;;;5054700;28;20039;-85
2022/04/13 01:28:14;;;;;;;8.13;2.67;;;13.00;99.90;;;;;;5036791;28;20040;-86
2022/04/13 01:30:39;;;;;;;9.65;2.60;;;12.90;99.90;;;;;;5033131;28;20025;-85
2022/04/13 01:33:06;;;;;;;9.80;2.90;;;12.90;99.90;;;;;;5032342;28;20056;-86
2022/04/13 01:35:32;;;;;;;7.15;2.63;;;;;;;;;;5050583;28;20017;-84
2022/04/13 01:37:58;;;;;;;9.20;2.38;;;;;;;;;;5052215;28;20039;-85
2022/04/13 01:40:24;;;;;;;7.40;2.90;;;;;;;;;;5051985;28;20025;-87
2022/04/13 01:42:50;;;;;;;7.57;3.40;;;;;;;;;;5057728;28;20113;-84
2022/04/13 01:45:19;;;;;;;7.18;3.17;;;;;;;;;;5051887;28;20040;-85
2022/04/13 01:47:54;;;;;;;7.18;3.15;;;12.60;99.90;;;;;;5055136;28;20037;-84
2022/04/13 01:50:20;;;;;;;7.15;3.58;;;12.60;99.90;;;;;;5048783;28;20482;-83
2022/04/13 01:52:47;;;;;;;7.13;3.25;;;12.60;99.90;;;;;;5036190;28;20025;-86
2022/04/13 01:55:13;;;;;;;7.22;3.45;;;12.50;99.90;;;;;;5050007;28;20552;-84
2022/04/13 01:57:40;;;;;;;8.77;3.13;;;12.50;99.90;;;;;;5054699;28;20033;-84
2022/04/13 02:00:08;;;;;;;6.20;2.80;;;14.60;99.90;;;;;;5054021;28;20088;-85
2022/04/13 02:02:34;;;;;;;6.28;3.00;;;12.50;99.90;;;;;;5040446;28;20056;-86
2022/04/13 02:05:00;;;;;;;7.20;3.08;;;;;;;;;;5053749;28;20033;-86
2022/04/13 02:07:26;;;;;;;8.07;2.92;;;;;;;;;;5061743;28;20037;-86
2022/04/13 02:09:53;;;;;;;7.15;3.00;;;;;;;;;;5035518;28;20029;-84
2022/04/13 02:12:19;;;;;;;6.65;2.83;;;;;;;;;;5036148;28;20026;-83
2022/04/13 02:14:44;;;;;;;8.13;3.00;;;15.30;99.90;;;;;;5050645;28;20057;-86
2022/04/13 02:17:14;;;;;;;9.13;3.65;;;;;;;;;;5051380;28;20058;-87
2022/04/13 02:19:41;;;;;;;8.70;2.88;;;;;;;;;;5053727;28;20079;-83
2022/04/13 02:22:07;;;;;;;8.38;3.72;;;12.40;99.90;;;;;;5057559;28;20033;-87
2022/04/13 02:24:34;;;;;;;6.07;2.90;;;12.30;99.90;;;;;;5035312;28;20029;-88
2022/04/13 02:27:00;;;;;;;6.18;2.97;;;12.30;99.90;;;;;;5055675;28;20145;-86
2022/04/13 02:29:26;;;;;;;7.25;3.30;;;;;;;;;;5036930;28;20120;-82
2022/04/13 02:31:53;;;;;;;8.23;3.20;;;;;;;;;;5049166;28;20029;-85
2022/04/13 02:34:18;;;;;;;5.78;2.92;;;12.30;99.90;;;;;;5037150;28;20063;-84
2022/04/13 02:36:44;;;;;;;11.45;3.25;;;12.30;99.90;;;;;;5035742;28;20021;-84
2022/04/13 02:39:10;;;;;;;8.68;3.08;;;12.30;99.90;;;;;;5048741;28;20040;-83
2022/04/13 02:41:36;;;;;;;10.80;3.30;;;;;;;;;;5032163;28;20033;-82
2022/04/13 02:44:02;;;;;;;7.82;3.20;;;;;;;;;;5050297;28;20028;-84
2022/04/13 02:46:28;;;;;;;7.93;2.92;;;;;;;;;;5051600;28;20029;-83
2022/04/13 02:48:53;;;;;;;7.53;2.97;;;12.30;99.90;;;;;;5052716;28;20540;-83
2022/04/13 02:51:19;;;;;;;9.27;3.22;;;12.20;99.90;;;;;;5051965;28;20032;-83
2022/04/13 02:53:45;;;;;;;5.65;2.78;;;;;;;;;;5051413;28;20120;-83
2022/04/13 02:56:11;;;;;;;6.57;3.05;;;;;;;;;;5047125;28;20447;-83
2022/04/13 02:58:37;;;;;;;6.57;3.40;;;;;;;;;;5056759;28;20561;-85
2022/04/13 03:01:04;;;;;;;7.88;3.03;;;12.20;99.90;;;;;;5048120;28;20076;-87
2022/04/13 03:03:30;;;;;;;6.50;2.80;;;;;;;;;;5054011;28;20040;-85
2022/04/13 03:05:56;;;;;;;11.73;3.03;;;12.00;99.90;;;;;;5055907;28;20176;-85
2022/04/13 03:08:22;;;;;;;8.05;3.58;;;;;;;;;;5051109;28;20021;-86
2022/04/13 03:10:48;;;;;;;8.07;2.58;;;;;;;;;;5029608;28;20013;-86
2022/04/13 03:13:14;;;;;;;9.65;2.55;;;;;;;;;;5050649;28;20036;-87
2022/04/13 03:15:40;;;;;;;7.53;2.92;;;12.00;99.90;;;;;;5036097;28;20085;-83
2022/04/13 03:18:06;;;;;;;7.60;2.80;;;11.90;99.90;;;;;;5037557;28;20049;-87
2022/04/13 03:20:35;;;;;;;7.43;2.90;;;11.90;99.90;;;;;;5048977;28;20647;-84
2022/04/13 03:23:03;;;;;;;7.90;2.90;;;11.90;99.90;;;;;;5049427;28;20036;-87
2022/04/13 03:25:29;;;;;;;7.88;2.90;;;;;;;;;;5030562;28;20059;-87
2022/04/13 03:27:55;;;;;;;10.93;3.00;;;11.90;99.90;;;;;;5061463;28;20025;-86
2022/04/13 03:30:22;;;;;;;6.85;2.60;;;;;;;;;;5041130;28;20033;-83
2022/04/13 03:32:50;;;;;;;6.55;2.65;;;11.90;99.90;;;;;;5045438;28;20020;-83
2022/04/13 03:35:16;;;;;;;5.97;2.70;;;11.90;99.90;;;;;;5046717;28;20033;-87
2022/04/13 03:37:42;;;;;;;9.43;3.00;;;11.90;99.90;;;;;;5046162;28;20040;-85
2022/04/13 03:40:10;;;;;;;10.10;3.17;;;11.90;99.90;;;;;;5057541;28;20035;-85
2022/04/13 03:42:40;;;;;;;6.80;3.10;;;11.90;99.90;;;;;;5054661;28;20029;-85
2022/04/13 03:45:09;;;;;;;7.32;3.20;;;11.80;99.90;;;;;;5052467;28;20035;-84
2022/04/13 03:47:34;;;;;;;9.52;2.70;;;11.80;99.90;;;;;;5055098;28;20108;-85
2022/04/13 03:50:00;;;;;;;7.30;2.65;;;11.80;99.90;;;;;;5052129;28;20060;-86
2022/04/13 03:52:26;;;;;;;5.90;2.83;;;11.70;99.90;;;;;;5053178;28;20025;-85
2022/04/13 03:54:52;;;;;;;8.98;3.20;;;;;;;;;;5051889;28;20115;-86
2022/04/13 03:57:18;;;;;;;6.88;2.78;;;11.60;99.90;;;;;;5055283;28;20081;-84
2022/04/13 03:59:45;;;;;;;11.23;3.33;;;;;;;;;;5057118;28;20033;-87
2022/04/13 04:02:10;;;;;;;5.35;2.97;;;10.70;99.90;;;;;;5044613;28;20388;-85
2022/04/13 04:04:36;;;;;;;7.07;3.10;;;;;;;;;;5032531;28;20043;-86
2022/04/13 04:07:02;;;;;;;8.57;2.92;;;11.50;99.90;;;;;;5049335;28;20112;-86
2022/04/13 04:09:28;;;;;;;8.27;3.22;;;;;;;;;;5054061;28;20030;-85
2022/04/13 04:11:54;;;;;;;6.18;2.50;;;;;;;;;;5052241;28;20141;-87
2022/04/13 04:14:20;;;;;;;6.05;2.53;;;;;;;;;;5047992;28;20018;-86
2022/04/13 04:16:46;;;;;;;5.97;2.60;;;;;;;;;;5030959;28;20024;-88
2022/04/13 04:19:12;;;;;;;6.63;2.47;;;11.40;99.90;;;;;;5050915;28;20075;-87
2022/04/13 04:21:38;;;;;;;8.48;2.78;;;;;;;;;;5050105;28;20029;-88
2022/04/13 04:24:04;;;;;;;7.00;2.47;;;;;;;;;;5052832;28;20033;-87
2022/04/13 04:26:29;;;;;;;6.97;2.90;;;11.50;99.90;;;;;;5038463;28;20033;-85
2022/04/13 04:28:55;;;;;;;8.25;2.80;;;;;;;;;;5049222;28;20024;-88
2022/04/13 04:31:49;;;;;;;10.02;3.05;;;11.50;99.90;;;;;;5051237;28;20033;-87
2022/04/13 04:34:06;;;;;;;11.80;3.05;;;11.40;99.90;;;;;;5050119;28;20028;-83
2022/04/13 04:36:32;;;;;;;8.48;3.22;;;;;;;;;;5045189;28;20711;-84
2022/04/13 04:38:58;;;;;;;6.95;3.10;;;;;;;;;;5045661;28;20457;-87
2022/04/13 04:41:24;;;;;;;11.68;4.90;;;11.40;99.90;;;;;;5037926;28;20033;-87
2022/04/13 04:43:50;;;;;;;10.65;2.90;;;;;;;;;;5046398;28;20136;-87
2022/04/13 04:46:16;;;;;;;11.30;2.85;;;;;;;;;;5050886;28;20029;-87
2022/04/13 04:48:42;;;;;;;8.95;3.03;;;;;;;;;;5039396;28;20033;-88
2022/04/13 04:51:08;;;;;;;8.45;2.88;;;;;;;;;;5051604;28;20017;-84
2022/04/13 04:53:35;;;;;;;5.40;2.85;;;11.30;99.90;;;;;;5047877;28;20043;-87
2022/04/13 04:56:01;;;;;;;7.57;2.90;;;11.30;99.90;;;;;;5046699;28;20036;-86
2022/04/13 04:58:27;;;;;;;8.23;3.58;;;;;;;;;;5029970;28;20025;-86
2022/04/13 05:00:53;;;;;;;8.60;2.88;;;;;;;;;;5047510;28;20087;-86
2022/04/13 05:03:19;;;;;;;10.95;2.97;;;;;;;;;;5047427;28;20020;-80
2022/04/13 05:05:45;;;;;;;9.15;3.28;;;;;;;;;;5041377;28;20039;-88
2022/04/13 05:08:13;;;;;;;9.98;3.90;;;;;;;;;;5054331;28;20033;-84
2022/04/13 05:10:39;;;;;;;8.52;2.78;;;11.40;99.90;;;;;;5053192;28;20100;-84
2022/04/13 05:13:06;;;;;;;6.22;2.80;;;;;;;;;;5052699;28;20056;-83
2022/04/13 05:15:32;;;;;;;13.00;3.22;;;11.50;99.90;;;;;;5049131;28;20022;-87
2022/04/13 05:17:58;;;;;;;11.60;3.85;;;11.40;99.90;;;;;;5046856;28;20021;-84
2022/04/13 05:20:24;;;;;;;8.35;3.45;;;;;;;;;;5031955;28;20097;-85
2022/04/13 05:22:50;;;;;;;6.63;3.20;;;;;;;;;;5047756;28;20053;-87
2022/04/13 05:25:16;;;;;;;8.75;3.42;;;11.40;99.90;;;;;;5043649;28;20036;-86
2022/04/13 05:27:43;;;;;;;7.38;3.67;;;11.50;99.90;;;;;;5049110;28;20116;-85
2022/04/13 05:30:10;;;;;;;9.38;3.25;;;11.50;99.90;;;;;;5029125;28;20025;-86
2022/04/13 05:32:48;;;;;;;13.23;4.57;;;11.50;99.90;;;;;;5045834;28;20680;-86
2022/04/13 05:35:15;;;;;;;12.07;3.97;;;11.40;99.90;;;;;;5046461;28;20033;-85
2022/04/13 05:37:41;;;;;;;10.02;3.88;;;;;;;;;;5046864;28;20029;-84
2022/04/13 05:40:07;;;;;;;11.98;3.85;;;11.50;99.90;;;;;;5033379;28;20031;-86
2022/04/13 05:42:33;;;;;;;12.55;4.25;;;;;;;;;;5028737;28;20096;-86
2022/04/13 05:44:59;;;;;;;10.05;3.72;;;;;;;;;;5031583;28;20147;-87
2022/04/13 05:47:26;;;;;;;12.13;4.38;;;;;;;;;;5031951;28;20453;-86
2022/04/13 05:49:51;;;;;;;10.93;5.15;;;11.70;99.90;;;;;;5052804;28;20617;-87
2022/04/13 05:52:17;;;;;;;12.90;4.65;;;;;;;;;;5049086;28;20029;-87
2022/04/13 05:54:43;;;;;;;9.93;4.43;;;11.70;99.90;;;;;;5050238;28;20039;-87
2022/04/13 05:57:09;;;;;;;9.82;3.53;;;;;;;;;;5054843;28;20029;-87
2022/04/13 05:59:36;;;;;;;7.97;3.58;;;11.80;99.90;;;;;;5050395;28;20041;-85
2022/04/13 06:02:02;;;;;;;11.48;3.70;;;11.80;99.90;;;;;;5053729;28;20025;-87
2022/04/13 06:04:28;;;;;;;15.25;3.63;;;11.80;99.90;;;;;;5051550;28;20029;-85
2022/04/13 06:06:54;;;;;;;9.55;3.60;;;;;;;;;;5046890;28;20029;-87
2022/04/13 06:09:22;;;;;;;8.20;3.50;;;;;;;;;;5030791;28;20028;-89
2022/04/13 06:11:48;;;;;;;10.57;4.13;;;;;;;;;;5062602;28;20021;-88
2022/04/13 06:14:14;;;;;;;12.25;3.90;;;;;;;;;;5056158;28;20033;-88
2022/04/13 06:16:40;;;;;;;11.48;4.50;;;;;;;;;;5056850;28;20365;-84
2022/04/13 06:19:06;;;;;;;14.40;4.70;;;;;;;;;;5049666;28;20029;-87
2022/04/13 06:21:31;;;;;;;13.85;4.63;;;12.10;99.90;;;;;;5047338;28;20020;-88
2022/04/13 06:23:57;;;;;;;16.85;4.20;;;;;;;;;;5062645;28;20087;-88
2022/04/13 06:26:23;;;;;;;11.82;4.20;;;;;;;;;;5042052;28;20122;-88
2022/04/13 06:28:49;;;;;;;10.77;4.30;;;12.30;99.90;;;;;;5057521;28;20025;-88
2022/04/13 06:31:15;;;;;;;13.48;5.03;;;;;;;;;;5040534;28;20021;-88
2022/04/13 06:33:40;;;;;;;14.88;4.45;;;12.50;99.90;;;;;;5059355;28;20025;-86
2022/04/13 06:36:08;;;;;;;9.82;3.90;;;;;;;;;;5069505;28;20036;-86
2022/04/13 06:38:34;;;;;;;11.85;4.30;;;12.80;99.90;;;;;;5048843;28;20216;-85
2022/04/13 06:41:00;;;;;;;11.40;4.03;;;13.00;99.90;;;;;;5070471;28;20999;-86
2022/04/13 06:43:26;;;;;;;9.20;4.22;;;13.00;99.90;;;;;;5052023;28;20325;-88
2022/04/13 06:45:54;;;;;;;12.50;4.97;;;13.00;99.90;;;;;;5064351;28;20053;-87
2022/04/13 06:48:21;;;;;;;13.07;4.65;;;13.20;99.90;;;;;;5057856;28;20171;-88
2022/04/13 06:50:46;;;;;;;11.43;4.22;;;13.20;99.90;;;;;;5050644;28;20022;-84
2022/04/13 06:53:14;;;;;;;9.07;3.83;;;13.30;99.90;;;;;;5073228;28;20083;-86
2022/04/13 06:55:40;;;;;;;8.38;3.83;;;13.50;99.90;;;;;;5069407;28;20033;-87
2022/04/13 06:58:06;;;;;;;9.27;4.18;;;13.60;99.90;;;;;;5064513;28;20032;-84
2022/04/13 07:00:32;;;;;;;9.40;4.00;;;13.70;99.90;;;;;;5045107;28;20029;-86
2022/04/13 07:02:58;;;;;;;10.15;3.92;;;;;;;;;;5056796;28;20056;-87
2022/04/13 07:05:25;;;;;;;14.38;4.65;;;14.10;99.90;;;;;;5058988;28;20052;-85
2022/04/13 07:07:51;;;;;;;10.05;3.80;;;14.20;99.90;;;;;;5037038;28;20025;-84
2022/04/13 07:10:17;;;;;;;9.73;3.58;;;;;;;;;;5057519;28;20044;-85
2022/04/13 07:12:43;;;;;;;8.90;3.63;;;;;;;;;;5042487;28;20029;-87
2022/04/13 07:15:09;;;;;;;11.73;4.03;;;14.40;99.90;;;;;;5039897;28;20033;-84
2022/04/13 07:17:35;;;;;;;9.38;3.88;;;;;;;;;;5061189;28;20052;-83
2022/04/13 07:20:01;;;;;;;7.60;3.40;;;;;;;;;;5060269;28;20033;-84
2022/04/13 07:22:27;;;;;;;10.55;3.65;;;14.60;99.90;;;;;;5058991;28;20081;-87
2022/04/13 07:24:52;;;;;;;6.95;3.22;;;14.70;99.90;;;;;;5055603;28;20056;-88
2022/04/13 07:27:18;;;;;;;9.32;3.67;;;;;;;;;;5044303;28;20056;-87
2022/04/13 07:29:44;;;;;;;11.57;3.47;;;15.00;99.90;;;;;;5061282;28;20172;-86
2022/04/13 07:32:10;;;;;;;11.38;3.47;;;;;;;;;;5054798;28;20064;-85
2022/04/13 07:34:36;;;;;;;7.18;3.45;;;15.20;99.70;;;;;;5052890;28;20032;-85
2022/04/13 07:37:03;;;;;;;11.27;3.58;;;15.60;98.10;;;;;;5057259;28;20471;-84
2022/04/13 07:39:30;;;;;;;10.40;3.60;;;;;;;;;;5059591;28;20470;-86
2022/04/13 07:41:56;;;;;;;12.68;3.58;;;;;;;;;;5044232;28;20339;-88
2022/04/13 07:44:22;;;;;;;8.63;2.83;;;;;;;;;;5046067;28;20497;-85
2022/04/13 07:46:47;;;;;;;6.82;3.28;;;16.00;94.30;;;;;;5060449;28;20500;-85
2022/04/13 07:49:13;;;;;;;16.92;3.22;;;16.10;94.60;;;;;;5042743;28;20043;-86
2022/04/13 07:51:40;;;;;;;7.68;2.80;;;;;;;;;;5060165;28;20196;-84
2022/04/13 07:54:06;;;;;;;7.80;2.80;;;16.50;92.10;;;;;;5051219;28;20079;-85
2022/04/13 07:56:32;;;;;;;10.65;3.20;;;16.70;91.70;;;;;;5044770;28;20063;-85
2022/04/13 07:58:58;;;;;;;11.48;2.85;;;16.60;92.00;;;;;;5037383;28;20033;-85
2022/04/13 08:01:24;;;;;;;7.95;2.60;;;16.80;90.40;;;;;;5061238;28;20093;-86
2022/04/13 08:03:50;;;;;;;8.20;2.42;;;17.00;87.60;;;;;;5059134;28;20029;-85
2022/04/13 08:06:16;;;;;;;6.57;2.67;;;;;;;;;;5042015;28;20036;-86
2022/04/13 08:08:42;;;;;;;7.65;2.38;;;;;;;;;;5055460;28;20501;-86
2022/04/13 08:11:08;;;;;;;7.45;2.35;;;;;;;;;;5044697;28;20029;-83
2022/04/13 08:13:34;;;;;;;7.93;2.20;;;;;;;;;;5045537;28;20020;-87
2022/04/13 08:16:00;;;;;;;8.05;2.85;;;17.50;82.50;;;;;;5058891;28;20509;-85
2022/04/13 08:18:26;;;;;;;8.90;2.67;;;;;;;;;;5060743;28;20017;-85
2022/04/13 08:20:52;;;;;;;6.35;2.22;;;;;;;;;;5039724;28;20048;-87
2022/04/13 08:23:18;;;;;;;8.50;2.90;;;;;;;;;;5040809;28;20476;-86
2022/04/13 08:25:44;;;;;;;5.63;2.30;;;17.90;81.20;;;;;;5057063;28;20433;-87
2022/04/13 08:28:10;;;;;;;7.72;2.70;;;;;;;;;;5059828;28;20162;-84
2022/04/13 08:30:36;;;;;;;7.95;2.72;;;;;;;;;;5071756;28;20036;-87
2022/04/13 08:33:03;;;;;;;8.32;2.60;;;;;;;;;;5056606;28;20026;-86
2022/04/13 08:35:29;;;;;;;10.32;2.60;;;;;;;;;;5050274;28;20048;-86
2022/04/13 08:37:54;;;;;;;7.13;2.40;;;18.00;80.80;;;;;;5060315;28;20037;-86
2022/04/13 08:40:21;;;;;;;8.05;3.30;;;;;;;;;;5065685;28;20438;-84
2022/04/13 08:43:00;;;;;;;5.65;2.47;;;18.40;79.80;;;;;;5044290;28;20080;-87
2022/04/13 08:45:30;;;;;;;6.13;2.72;;;18.60;78.80;;;;;;5060399;28;20034;-87
2022/04/13 08:47:59;;;;;;;9.05;2.97;;;18.60;79.30;;;;;;5060260;28;20033;-87
2022/04/13 08:50:30;;;;;;;10.27;2.60;;;18.80;78.90;;;;;;5045116;28;20025;-85
2022/04/13 08:53:00;;;;;;;8.73;2.42;;;18.90;76.90;;;;;;5057643;28;20048;-89
2022/04/13 08:55:27;;;;;;;;;;;18.90;77.00;;;;;;5041488;28;20076;-86
2022/04/13 08:58:11;;;;;;;7.45;2.38;;;18.90;77.80;;;;;;5041938;28;19913;-86
2022/04/13 09:00:48;;;;;;;5.75;2.25;;;19.30;76.20;;;;;;5051050;28;20505;-86
2022/04/13 09:03:17;;;;;;;10.13;2.58;;;19.20;76.60;;;;;;5040468;28;20064;-85
2022/04/13 09:05:45;;;;;;;7.38;2.53;;;20.20;76.70;;;;;;5066155;28;20088;-87
2022/04/13 09:08:23;;;;;;;9.18;2.55;;;19.60;74.70;;;;;;5040557;28;20092;-87
2022/04/13 09:10:51;;;;;;;8.55;2.78;;;19.40;74.90;;;;;;5046911;28;20111;-85
2022/04/13 09:13:19;;;;;;;8.45;3.00;;;19.80;75.40;;;;;;5045399;28;20021;-87
2022/04/13 09:15:46;;;;;;;8.23;2.40;;;19.70;75.60;;;;;;5066874;28;20017;-88
2022/04/13 09:18:12;;;;;;;8.82;2.90;;;20.00;74.20;;;;;;5060285;28;20017;-83
2022/04/13 09:20:38;;;;;;;7.10;2.58;;;20.10;74.90;;;;;;5056808;28;20032;-86
2022/04/13 09:23:04;;;;;;;6.65;2.33;;;20.10;73.40;;;;;;5056676;28;20112;-85
2022/04/13 09:25:32;;;;;;;8.80;2.70;;;20.30;72.60;;;;;;5044324;28;20109;-85
2022/04/13 09:27:59;;;;;;;7.20;2.45;;;20.30;71.40;;;;;;5035632;28;20030;-84
2022/04/13 09:30:25;;;;;;;7.35;2.60;;;20.20;72.10;;;;;;5038433;28;20021;-86
2022/04/13 09:32:51;;;;;;;7.10;2.38;;;;;;;;;;5060639;28;20029;-84
2022/04/13 09:35:20;;;;;;;6.40;3.00;;;20.60;71.80;;;;;;5047757;28;20056;-85
2022/04/13 09:37:46;;;;;;;8.13;2.30;;;;;;;;;;5060858;28;20111;-86
2022/04/13 09:40:30;;;;;;;5.18;2.50;;;20.60;71.40;;;;;;5063467;28;20028;-84
2022/04/13 09:43:09;;;;;;;9.27;2.22;;;20.40;71.50;;;;;;5065993;28;20029;-84
2022/04/13 09:45:39;;;;;;;6.60;2.03;;;20.60;71.50;;;;;;5063374;28;20037;-86
2022/04/13 09:48:05;;;;;;;6.03;2.50;;;20.60;71.10;;;;;;5063447;28;20031;-85
2022/04/13 09:50:32;;;;;;;7.68;1.90;;;20.70;70.50;;;;;;5044922;28;20421;-85
2022/04/13 09:53:03;;;;;;;7.63;2.50;;;20.70;71.10;;;;;;5041153;28;20033;-87
2022/04/13 09:55:30;;;;;;;6.95;2.33;;;20.60;70.70;;;;;;5068921;28;20116;-87
2022/04/13 09:58:09;;;;;;;5.90;2.53;;;20.60;70.30;;;;;;5062047;28;20049;-86
2022/04/13 10:00:36;;;;;;;6.63;2.83;;;20.70;69.90;;;;;;5052332;28;20037;-86
2022/04/13 10:03:20;;;;;;;7.20;2.20;;;20.60;70.30;;;;;;5065572;28;20033;-85
2022/04/13 10:05:49;;;;;;;11.32;2.92;;;20.90;69.30;;;;;;5064695;28;20360;-85
2022/04/13 10:08:15;;;;;;;10.65;2.20;;;;;;;;;;5057261;28;20192;-85
2022/04/13 10:10:45;;;;;;;9.70;2.38;;;21.10;68.90;;;;;;5061447;28;20033;-86
2022/04/13 10:13:12;;;;;;;;;;;21.50;70.30;;;;;;5062710;28;20030;-86
2022/04/13 10:15:38;;;;;;;4.78;2.33;;;;;;;;;;5044703;28;19915;-86
2022/04/13 10:18:05;;;;;;;8.27;2.58;;;;;;;;;;5064237;28;20040;-81
2022/04/13 10:20:44;;;;;;;7.47;2.67;;;21.50;68.30;;;;;;5059027;28;20040;-86
2022/04/13 10:23:10;;;;;;;6.47;2.22;;;21.70;69.00;;;;;;5063214;28;20063;-84
2022/04/13 10:25:36;;;;;;;8.55;2.63;;;21.80;68.60;;;;;;5062629;28;20039;-85
2022/04/13 10:28:03;;;;;;;7.55;2.28;;;22.00;67.30;;;;;;5065696;28;20044;-86
2022/04/13 10:30:37;;;;;;;7.60;2.40;;;22.00;67.30;;;;;;5066308;28;20032;-87
2022/04/13 10:33:11;;;;;;;6.35;2.40;;;22.20;67.50;;;;;;5059580;28;20032;-86
2022/04/13 10:35:45;;;;;;;8.68;2.03;;;22.40;67.10;;;;;;5046608;28;20436;-85
2022/04/13 10:38:15;;;;;;;9.25;2.22;;;22.40;66.20;;;;;;5044501;28;20024;-85
2022/04/13 10:40:42;;;;;;;8.43;2.28;;;22.30;64.70;;;;;;5058859;28;20029;-85
2022/04/13 10:43:11;;;;;;;6.85;2.40;;;22.50;65.80;;;;;;5060820;28;20037;-86
2022/04/13 10:45:39;;;;;;;4.57;2.15;;;22.60;64.60;;;;;;5040920;28;20123;-84
2022/04/13 10:48:07;;;;;;;7.50;2.63;;;22.70;66.30;;;;;;5042550;28;20033;-86
2022/04/13 10:50:54;;;;;;;6.65;2.30;;;22.70;65.50;;;;;;5055313;28;20029;-86
2022/04/13 10:53:35;;;;;;;5.50;2.08;;;22.70;64.30;;;;;;5057554;28;20081;-86
2022/04/13 10:56:05;;;;;;;7.07;2.38;;;22.70;64.40;;;;;;5060191;28;20036;-85
2022/04/13 10:58:40;;;;;;;8.55;1.85;;;22.80;64.00;;;;;;5039277;28;20056;-88
2022/04/13 11:01:11;;;;;;;7.65;2.03;;;22.80;63.10;;;;;;5060940;28;20025;-84
2022/04/13 11:03:38;;;;;;;8.95;3.13;;;;;;;;;;5049594;28;20025;-84
2022/04/13 11:06:05;;;;;;;7.88;2.75;;;23.00;63.30;;;;;;5048971;28;20041;-86
2022/04/13 11:08:57;;;;;;;7.15;1.77;;;23.00;63.50;;;;;;5050822;28;20032;-85
2022/04/13 11:11:26;;;;;;;6.82;2.13;;;23.10;62.10;;;;;;5065591;28;20055;-86
2022/04/13 11:13:52;;;;;;;11.52;2.38;;;;;;;;;;5059993;28;20025;-85
2022/04/13 11:16:18;;;;;;;10.10;2.67;;;;;;;;;;5064667;28;20032;-83
2022/04/13 11:19:05;;;;;;;9.10;2.60;;;23.30;62.60;;;;;;5045105;28;20033;-83
2022/04/13 11:21:50;;;;;;;6.82;2.40;;;23.30;61.80;;;;;;5042686;28;20111;-84
2022/04/13 11:24:34;;;;;;;8.30;2.50;;;23.30;61.40;;;;;;5062735;28;20021;-85
2022/04/13 11:27:01;;;;;;;5.95;2.35;;;;;;;;;;5041338;28;20032;-86
2022/04/13 11:29:35;;;;;;;12.20;3.00;;;23.40;61.70;;;;;;5038961;28;20474;-83
2022/04/13 11:32:01;;;;;;;7.38;3.13;;;;;;;;;;5059295;28;20058;-84
2022/04/13 11:34:27;;;;;;;11.05;3.47;;;23.50;60.20;;;;;;5060235;28;20104;-86
2022/04/13 11:36:58;;;;;;;10.90;3.03;;;23.50;59.00;;;;;;5038071;28;20029;-85
2022/04/13 11:39:44;;;;;;;8.95;2.70;;;23.40;59.00;;;;;;5059323;28;20104;-84
2022/04/13 11:42:14;;;;;;;10.60;2.20;;;23.40;58.60;;;;;;5047540;28;20029;-87
2022/04/13 11:44:56;;;;;;;6.60;1.98;;;23.50;58.90;;;;;;5064617;28;20035;-83
2022/04/13 11:47:22;;;;;;;7.68;2.38;;;;;;;;;;5046106;28;20045;-86
2022/04/13 11:49:58;;;;;;;8.48;2.63;;;23.60;57.60;;;;;;5065101;28;20025;-84
2022/04/13 11:52:49;;;;;;;9.55;2.08;;;23.60;56.20;;;;;;5045273;28;20033;-85
2022/04/13 11:55:20;;;;;;;9.65;2.20;;;23.70;57.40;;;;;;5062490;28;20112;-83
2022/04/13 11:58:04;;;;;;;7.57;2.55;;;23.90;57.60;;;;;;5064043;28;20057;-86
2022/04/13 12:00:37;;;;;;;8.65;2.17;;;23.90;57.20;;;;;;5063287;28;20029;-87
2022/04/13 12:03:12;;;;;;;9.18;2.75;;;23.90;57.20;;;;;;5034158;28;20048;-86
2022/04/13 12:05:46;;;;;;;7.70;2.22;;;23.90;57.50;;;;;;5051765;28;20033;-87
2022/04/13 12:08:13;;;;;;;9.68;2.15;;;24.00;56.80;;;;;;5053129;28;20084;-85
2022/04/13 12:10:48;;;;;;;7.95;2.28;;;24.20;56.40;;;;;;5071763;28;20048;-83
2022/04/13 12:13:14;;;;;;;6.38;1.80;;;;;;;;;;5065455;28;20032;-82
2022/04/13 12:15:50;;;;;;;10.95;2.28;;;24.40;56.70;;;;;;5059251;28;20032;-85
2022/04/13 12:18:16;;;;;;;10.85;2.25;;;;;;;;;;5048207;28;20421;-85
2022/04/13 12:20:42;;;;;;;7.03;2.22;;;;;;;;;;5063334;28;20033;-82
2022/04/13 12:23:26;;;;;;;8.00;2.83;;;24.40;56.50;;;;;;5051502;28;20051;-85
2022/04/13 12:25:55;;;;;;;10.38;2.70;;;24.20;56.40;;;;;;5046356;28;20021;-84
2022/04/13 12:28:23;;;;;;;6.90;2.00;;;24.20;56.80;;;;;;5063441;28;20072;-84
2022/04/13 12:31:04;;;;;;;10.07;2.30;;;24.20;56.80;;;;;;5055146;28;20647;-84
2022/04/13 12:33:31;;;;;;;9.35;2.70;;;24.20;57.00;;;;;;5052361;28;20125;-82
2022/04/13 12:36:05;;;;;;;7.40;1.90;;;24.20;57.00;;;;;;5062245;28;20508;-85
2022/04/13 12:38:31;;;;;;;7.57;2.15;;;;;;;;;;5047918;28;20089;-86
2022/04/13 12:41:15;;;;;;;7.32;2.28;;;24.40;56.60;;;;;;5062799;28;20040;-84
2022/04/13 12:43:41;;;;;;;5.45;2.00;;;;;;;;;;5044196;28;20052;-84
2022/04/13 12:46:12;;;;;;;5.97;2.28;;;24.70;56.00;;;;;;5063371;28;20049;-84
2022/04/13 12:48:38;;;;;;;5.40;2.40;;;;;;;;;;5061252;28;20052;-84
2022/04/13 12:51:05;;;;;;;12.23;2.50;;;24.80;55.70;;;;;;5064007;28;20035;-83
2022/04/13 12:53:46;;;;;;;8.60;2.08;;;24.60;55.80;;;;;;5047007;28;20023;-83
2022/04/13 12:56:17;;;;;;;8.07;2.00;;;24.70;56.80;;;;;;5053225;28;20029;-85
2022/04/13 12:58:44;;;;;;;9.93;2.83;;;;;;;;;;5044945;28;20104;-84
2022/04/13 13:01:11;;;;;;;6.53;2.53;;;;;;;;;;5042623;28;20024;-83
2022/04/13 13:03:40;;;;;;;7.47;2.28;;;24.80;56.20;;;;;;5063562;28;20021;-84
2022/04/13 13:06:08;;;;;;;6.45;2.40;;;24.90;56.00;;;;;;5050130;28;20024;-82
2022/04/13 13:08:35;;;;;;;9.77;2.80;;;24.80;56.00;;;;;;5045090;28;20039;-83
2022/04/13 13:11:01;;;;;;;12.63;2.67;;;;;;;;;;5049501;28;20021;-83
2022/04/13 13:13:38;;;;;;;6.88;2.00;;;24.50;56.00;;;;;;5049517;28;20055;-84
2022/04/13 13:16:04;;;;;;;8.18;2.25;;;24.50;56.50;;;;;;5066058;28;20029;-84
2022/04/13 13:18:29;;;;;;;7.53;2.00;;;24.50;56.50;;;;;;5076302;28;20152;-85
2022/04/13 13:20:59;;;;;;;7.38;2.00;;;24.70;56.30;;;;;;5059281;28;20037;-85
2022/04/13 13:23:27;;;;;;;8.30;2.20;;;24.60;56.30;;;;;;5066478;28;20763;-82
2022/04/13 13:25:53;;;;;;;6.78;2.08;;;;;;;;;;5046763;28;20048;-82
2022/04/13 13:28:27;;;;;;;7.18;1.92;;;24.50;56.10;;;;;;5045002;28;20029;-83